Time;durP1;ratioP1;P1;durP2;ratioP2;P2;SDS_P1;SDS_P2;PMS_P1;PMS_P2;Temp;Humidity;BMP_temperature;BMP_pressure;BME280_temperature;BME280_humidity;BME280_pressure;Samples;Min_cycle;Max_cycle;Signal;HPM_P1;HPM_P2
2023/06/29 00:00:40;;;;;;;4.78;3.05;;;;;;;17.60;100.00;94623.41;5093536;28;20063;-81
2023/06/29 00:03:06;;;;;;;5.72;3.00;;;;;;;17.67;100.00;94626.41;5076400;28;20412;-82
2023/06/29 00:05:31;;;;;;;9.35;3.50;;;;;;;17.56;100.00;94625.09;5092999;28;20030;-81
2023/06/29 00:07:59;;;;;;;6.65;3.58;;;;;;;17.85;100.00;94621.16;5092584;28;20030;-81
2023/06/29 00:10:25;;;;;;;10.88;3.70;;;;;;;17.55;100.00;94623.56;5092924;28;20028;-81
2023/06/29 00:12:52;;;;;;;7.57;3.65;;;;;;;17.42;100.00;94624.41;5076268;28;20031;-81
2023/06/29 00:15:17;;;;;;;9.93;3.30;;;;;;;17.20;100.00;94623.34;5092858;28;20027;-81
2023/06/29 00:17:47;;;;;;;6.38;3.20;;;;;;;17.42;100.00;94621.78;5093664;28;20028;-81
2023/06/29 00:20:13;;;;;;;5.97;3.30;;;;;;;17.41;100.00;94623.63;5092853;28;20020;-82
2023/06/29 00:22:40;;;;;;;7.05;3.40;;;;;;;17.61;100.00;94619.66;5092788;28;20444;-82
2023/06/29 00:25:09;;;;;;;6.70;3.38;;;;;;;17.27;100.00;94621.06;5092729;28;20070;-82
2023/06/29 00:27:35;;;;;;;6.57;3.67;;;;;;;17.12;100.00;94621.44;5075821;28;20020;-82
2023/06/29 00:30:00;;;;;;;6.10;3.20;;;;;;;17.05;100.00;94614.72;5094023;28;20073;-81
2023/06/29 00:32:25;;;;;;;7.00;2.92;;;;;;;17.34;100.00;94615.34;5092711;28;20055;-82
2023/06/29 00:34:51;;;;;;;6.68;3.22;;;;;;;17.53;100.00;94617.78;5092697;28;20314;-81
2023/06/29 00:37:16;;;;;;;6.05;3.30;;;;;;;17.21;100.00;94619.63;5075659;28;20070;-81
2023/06/29 00:39:42;;;;;;;7.47;3.35;;;;;;;17.31;100.00;94616.72;5075934;28;20027;-82
2023/06/29 00:42:07;;;;;;;5.18;3.05;;;;;;;17.20;100.00;94618.06;5092674;28;20028;-81
2023/06/29 00:44:33;;;;;;;5.28;3.25;;;;;;;17.28;100.00;94614.69;5093788;28;20032;-81
2023/06/29 00:46:59;;;;;;;6.18;3.10;;;;;;;17.55;100.00;94612.16;5093353;28;20032;-82
2023/06/29 00:49:24;;;;;;;10.43;3.20;;;;;;;17.86;100.00;94617.44;5092710;28;20028;-81
2023/06/29 00:51:52;;;;;;;5.00;3.28;;;;;;;18.09;100.00;94620.03;5092652;28;20036;-81
2023/06/29 00:54:18;;;;;;;6.10;3.42;;;;;;;17.75;100.00;94624.09;5092497;28;20462;-82
2023/06/29 00:56:45;;;;;;;5.72;3.65;;;;;;;17.97;100.00;94611.84;5092327;28;20028;-82
2023/06/29 00:59:11;;;;;;;7.32;3.63;;;;;;;18.07;100.00;94614.22;5096497;28;20073;-81
2023/06/29 01:01:38;;;;;;;7.40;3.58;;;;;;;18.23;100.00;94614.56;5096463;28;20387;-81
2023/06/29 01:04:04;;;;;;;6.03;3.30;;;;;;;18.51;100.00;94623.06;5091506;28;20434;-82
2023/06/29 01:06:31;;;;;;;6.50;3.25;;;;;;;18.73;100.00;94612.59;5059519;28;20035;-82
2023/06/29 01:09:05;;;;;;;4.80;3.35;;;;;;;18.73;100.00;94615.25;5059103;28;20554;-81
2023/06/29 01:11:35;;;;;;;7.40;2.97;;;;;;;18.78;100.00;94615.09;5080207;28;20480;-82
2023/06/29 01:14:04;;;;;;;5.68;3.20;;;;;;;18.89;100.00;94615.53;5081804;28;20070;-82
2023/06/29 01:16:32;;;;;;;9.55;3.00;;;;;;;18.92;100.00;94605.06;5090188;28;20024;-82
2023/06/29 01:19:00;;;;;;;7.60;2.67;;;;;;;18.61;100.00;94607.91;5091782;28;20139;-82
2023/06/29 01:21:27;;;;;;;7.72;3.53;;;;;;;18.29;100.00;94601.94;5078992;28;20028;-81
2023/06/29 01:23:55;;;;;;;7.30;3.60;;;;;;;18.23;100.00;94604.75;5096772;28;20099;-82
2023/06/29 01:26:20;;;;;;;4.82;2.85;;;;;;;18.54;100.00;94608.34;5064969;28;20028;-82
2023/06/29 01:28:48;;;;;;;6.95;3.15;;;;;;;18.60;100.00;94598.38;5084607;28;20326;-82
2023/06/29 01:31:14;;;;;;;5.95;3.25;;;;;;;18.05;100.00;94605.81;5088574;28;20139;-81
2023/06/29 01:33:40;;;;;;;5.07;3.22;;;;;;;17.65;100.00;94601.31;5094503;28;20114;-82
2023/06/29 01:36:27;;;;;;;8.88;3.33;;;;;;;17.52;100.00;94597.69;5096676;28;20069;-82
2023/06/29 01:39:05;;;;;;;5.93;3.17;;;;;;;17.78;100.00;94600.41;5093871;28;20027;-82
2023/06/29 01:41:35;;;;;;;5.15;2.88;;;;;;;18.13;100.00;94593.66;5096840;28;20337;-82
2023/06/29 01:44:03;;;;;;;7.82;3.95;;;;;;;18.20;100.00;94600.06;5083068;28;20035;-82
2023/06/29 01:46:28;;;;;;;7.10;3.03;;;;;;;18.28;100.00;94595.84;5093734;28;20020;-82
2023/06/29 01:48:54;;;;;;;7.95;3.70;;;;;;;18.15;100.00;94588.84;5080205;28;20032;-82
2023/06/29 01:51:20;;;;;;;9.32;3.95;;;;;;;18.17;100.00;94590.06;5059812;28;20044;-82
2023/06/29 01:53:45;;;;;;;10.88;3.65;;;;;;;18.19;100.00;94593.19;5075193;28;20070;-82
2023/06/29 01:56:11;;;;;;;7.15;4.00;;;;;;;18.16;100.00;94588.50;5076511;28;20341;-82
2023/06/29 01:58:36;;;;;;;9.15;4.50;;;;;;;17.45;100.00;94590.16;5059125;28;20035;-82
2023/06/29 02:01:01;;;;;;;7.95;4.63;;;;;;;17.24;100.00;94592.56;5076265;28;20047;-82
2023/06/29 02:03:27;;;;;;;7.50;4.35;;;;;;;17.20;100.00;94586.28;5077414;28;20064;-82
2023/06/29 02:05:52;;;;;;;16.67;4.65;;;;;;;17.05;100.00;94587.47;5076548;28;20027;-82
2023/06/29 02:08:18;;;;;;;9.30;4.80;;;;;;;17.20;100.00;94586.28;5076541;28;20035;-82
2023/06/29 02:10:43;;;;;;;9.73;4.88;;;;;;;17.35;100.00;94583.25;5059141;28;20025;-81
2023/06/29 02:13:09;;;;;;;10.20;4.68;;;;;;;17.53;100.00;94593.94;5077104;28;20020;-82
2023/06/29 02:15:34;;;;;;;9.23;4.53;;;;;;;17.58;100.00;94593.03;5075942;28;20058;-81
2023/06/29 02:17:59;;;;;;;9.32;4.90;;;;;;;17.55;100.00;94594.41;5058395;28;20352;-82
2023/06/29 02:20:25;;;;;;;8.57;4.85;;;;;;;17.58;100.00;94587.72;5077105;28;20028;-82
2023/06/29 02:22:50;;;;;;;8.20;4.78;;;;;;;17.57;100.00;94594.88;5075756;28;20020;-81
2023/06/29 02:25:17;;;;;;;10.27;4.90;;;;;;;17.59;100.00;94584.00;5075916;28;20031;-82
2023/06/29 02:27:42;;;;;;;17.35;5.60;;;;;;;17.31;100.00;94586.84;5058973;28;20326;-81
2023/06/29 02:30:08;;;;;;;10.20;5.47;;;;;;;16.87;100.00;94597.13;5059652;28;20027;-81
2023/06/29 02:32:34;;;;;;;8.00;4.95;;;;;;;17.26;100.00;94595.69;5075805;28;20046;-81
2023/06/29 02:34:59;;;;;;;10.30;5.47;;;;;;;17.34;100.00;94597.56;5059337;28;20085;-82
2023/06/29 02:37:24;;;;;;;16.08;6.45;;;;;;;16.81;100.00;94591.97;5076438;28;20437;-81
2023/06/29 02:39:50;;;;;;;15.55;6.40;;;;;;;16.89;100.00;94595.75;5075338;28;20030;-81
2023/06/29 02:42:15;;;;;;;13.75;6.50;;;;;;;17.22;100.00;94592.84;5075806;28;20025;-82
2023/06/29 02:44:41;;;;;;;13.02;6.10;;;;;;;17.25;100.00;94588.81;5075431;28;20630;-82
2023/06/29 02:47:06;;;;;;;18.55;6.57;;;;;;;16.94;100.00;94584.28;5076074;28;20028;-81
2023/06/29 02:49:32;;;;;;;12.05;6.38;;;;;;;16.77;100.00;94591.00;5075371;28;20025;-81
2023/06/29 02:51:57;;;;;;;10.05;6.43;;;;;;;16.72;100.00;94593.00;5075714;28;20029;-82
2023/06/29 02:54:22;;;;;;;16.20;6.88;;;;;;;16.95;100.00;94585.84;5058763;28;20024;-82
2023/06/29 02:56:49;;;;;;;9.70;5.70;;;;;;;17.00;100.00;94584.94;5074825;28;20027;-82
2023/06/29 02:59:14;;;;;;;15.32;5.80;;;;;;;17.08;100.00;94595.59;5075397;28;20353;-81
2023/06/29 03:01:40;;;;;;;11.80;5.63;;;;;;;17.03;100.00;94590.41;5075279;28;20107;-82
2023/06/29 03:04:05;;;;;;;16.58;6.32;;;;;;;17.07;100.00;94590.59;5091909;28;20032;-81
2023/06/29 03:06:31;;;;;;;16.40;6.55;;;;;;;17.05;100.00;94590.88;5096512;28;20024;-81
2023/06/29 03:08:56;;;;;;;9.88;6.43;;;;;;;16.75;100.00;94597.69;5096174;28;20020;-81
2023/06/29 03:11:21;;;;;;;11.85;6.18;;;;;;;16.95;100.00;94596.41;5078227;28;20028;-81
2023/06/29 03:13:49;;;;;;;13.95;5.93;;;;;;;17.02;100.00;94603.97;5078140;28;20023;-82
2023/06/29 03:16:18;;;;;;;11.80;6.25;;;;;;;17.01;100.00;94597.09;5095393;28;20020;-82
2023/06/29 03:18:44;;;;;;;12.45;6.65;;;;;;;16.57;100.00;94597.56;5095973;28;20081;-81
2023/06/29 03:21:09;;;;;;;11.43;6.28;;;;;;;16.32;100.00;94607.59;5095134;28;20436;-81
2023/06/29 03:23:35;;;;;;;10.13;6.28;;;;;;;16.64;100.00;94603.19;5094791;28;20030;-82
2023/06/29 03:26:00;;;;;;;10.02;6.03;;;;;;;16.76;100.00;94610.59;5088462;28;20028;-81
2023/06/29 03:28:25;;;;;;;13.52;6.15;;;;;;;16.79;100.00;94607.38;5080813;28;20058;-82
2023/06/29 03:30:51;;;;;;;12.35;6.18;;;;;;;16.76;100.00;94607.19;5081858;28;20115;-81
2023/06/29 03:33:16;;;;;;;10.43;6.30;;;;;;;16.29;100.00;94604.78;5075646;28;20027;-81
2023/06/29 03:35:42;;;;;;;13.25;7.05;;;;;;;16.10;100.00;94614.38;5088045;28;20043;-81
2023/06/29 03:38:09;;;;;;;15.95;6.70;;;;;;;16.23;100.00;94612.81;5081749;28;20073;-81
2023/06/29 03:40:35;;;;;;;9.73;6.28;;;;;;;16.58;100.00;94609.69;5079730;28;20077;-81
2023/06/29 03:43:00;;;;;;;13.52;6.20;;;;;;;16.58;100.00;94616.84;5077607;28;20036;-81
2023/06/29 03:45:26;;;;;;;13.93;6.25;;;;;;;16.33;100.00;94611.81;5094672;28;20031;-81
2023/06/29 03:47:51;;;;;;;13.40;6.05;;;;;;;16.27;100.00;94609.56;5094079;28;20035;-81
2023/06/29 03:50:17;;;;;;;10.07;5.95;;;;;;;16.42;100.00;94613.75;5095891;28;20492;-81
2023/06/29 03:52:42;;;;;;;8.57;5.18;;;;;;;16.61;100.00;94603.00;5094563;28;20051;-81
2023/06/29 03:55:09;;;;;;;10.60;4.82;;;;;;;16.68;100.00;94606.03;5094553;28;20020;-81
2023/06/29 03:57:34;;;;;;;6.57;3.92;;;;;;;16.73;100.00;94602.50;5095085;28;20024;-82
2023/06/29 03:59:59;;;;;;;10.90;4.47;;;;;;;16.36;100.00;94607.81;5094205;28;20433;-81
2023/06/29 04:02:25;;;;;;;10.23;4.93;;;;;;;16.18;100.00;94612.91;5094378;28;20035;-81
2023/06/29 04:04:50;;;;;;;10.05;4.03;;;;;;;16.09;100.00;94607.53;5093875;28;20032;-81
2023/06/29 04:07:16;;;;;;;8.88;4.13;;;;;;;15.96;100.00;94611.78;5076951;28;20028;-81
2023/06/29 04:09:41;;;;;;;8.98;4.60;;;;;;;15.89;100.00;94611.38;5077387;28;20034;-81
2023/06/29 04:12:07;;;;;;;12.35;5.07;;;;;;;15.88;100.00;94611.66;5094608;28;20340;-81
2023/06/29 04:14:32;;;;;;;13.38;4.95;;;;;;;15.85;100.00;94618.31;5095907;28;20432;-81
2023/06/29 04:16:58;;;;;;;12.02;5.25;;;;;;;16.21;100.00;94617.63;5093810;28;20337;-81
2023/06/29 04:19:23;;;;;;;9.05;3.75;;;;;;;16.19;100.00;94619.00;5094292;28;20032;-81
2023/06/29 04:21:49;;;;;;;6.50;3.60;;;;;;;16.14;100.00;94619.06;5094135;28;20028;-81
2023/06/29 04:24:14;;;;;;;5.20;3.30;;;;;;;16.32;100.00;94617.38;5094153;28;20024;-81
2023/06/29 04:26:41;;;;;;;12.05;3.60;;;;;;;16.42;100.00;94622.47;5094970;28;20032;-81
2023/06/29 04:29:06;;;;;;;5.95;3.45;;;;;;;16.38;100.00;94626.78;5094132;28;20028;-81
2023/06/29 04:31:33;;;;;;;6.28;3.85;;;;;;;16.51;100.00;94627.81;5094082;28;20081;-81
2023/06/29 04:33:58;;;;;;;7.90;3.95;;;;;;;16.36;100.00;94634.25;5097611;28;20042;-81
2023/06/29 04:36:27;;;;;;;8.32;3.45;;;;;;;16.81;100.00;94625.56;5098311;28;20032;-81
2023/06/29 04:38:53;;;;;;;6.38;3.67;;;;;;;17.03;100.00;94621.41;5097940;28;20024;-81
2023/06/29 04:41:18;;;;;;;9.50;4.55;;;;;;;16.90;100.00;94636.22;5098331;28;20326;-81
2023/06/29 04:43:47;;;;;;;11.13;5.07;;;;;;;16.64;100.00;94634.16;5098218;28;20355;-81
2023/06/29 04:46:14;;;;;;;13.70;4.93;;;;;;;16.52;100.00;94632.84;5098198;28;20074;-81
2023/06/29 04:48:39;;;;;;;10.25;5.10;;;;;;;16.48;100.00;94633.72;5097664;28;20046;-81
2023/06/29 04:51:05;;;;;;;8.07;4.75;;;;;;;16.72;100.00;94630.03;5097829;28;20032;-80
2023/06/29 04:53:34;;;;;;;8.55;4.40;;;;;;;17.12;100.00;94630.16;5098236;28;20040;-81
2023/06/29 04:56:01;;;;;;;14.70;4.88;;;;;;;17.33;100.00;94633.09;5098079;28;20028;-81
2023/06/29 04:58:26;;;;;;;11.85;5.50;;;;;;;17.40;100.00;94623.94;5080796;28;20035;-80
2023/06/29 05:00:52;;;;;;;11.85;5.32;;;;;;;17.55;100.00;94631.50;5097927;28;20024;-80
2023/06/29 05:03:21;;;;;;;7.80;4.65;;;;;;;17.04;100.00;94628.25;5097809;28;20024;-80
2023/06/29 05:05:47;;;;;;;10.15;4.60;;;;;;;16.88;100.00;94633.09;5099112;28;20028;-80
2023/06/29 05:08:12;;;;;;;9.63;4.95;;;;;;;16.76;100.00;94641.56;5097342;28;20020;-80
2023/06/29 05:10:39;;;;;;;8.25;4.60;;;;;;;16.78;100.00;94626.94;5098880;28;20023;-80
2023/06/29 05:13:04;;;;;;;8.65;5.00;;;;;;;16.84;100.00;94634.78;5097750;28;20016;-80
2023/06/29 05:15:30;;;;;;;9.30;4.80;;;;;;;16.92;100.00;94634.03;5097752;28;20031;-80
2023/06/29 05:17:55;;;;;;;10.52;5.18;;;;;;;17.09;100.00;94638.72;5097403;28;20444;-80
2023/06/29 05:20:21;;;;;;;11.23;5.63;;;;;;;17.16;100.00;94638.28;5096901;28;20020;-80
2023/06/29 05:22:46;;;;;;;8.07;5.25;;;;;;;17.08;100.00;94637.94;5080606;28;20032;-79
2023/06/29 05:25:13;;;;;;;8.95;4.78;;;;;;;17.06;100.00;94639.31;5077105;28;20039;-80
2023/06/29 05:27:38;;;;;;;7.60;4.45;;;;;;;17.32;100.00;94644.75;5076705;28;20323;-80
2023/06/29 05:30:04;;;;;;;13.52;5.85;;;;;;;17.24;100.00;94640.97;5076800;28;20040;-80
2023/06/29 05:32:30;;;;;;;8.23;4.00;;;;;;;17.40;100.00;94634.53;5060333;28;20076;-80
2023/06/29 05:34:56;;;;;;;9.30;3.85;;;;;;;17.55;100.00;94636.78;5077842;28;20505;-80
2023/06/29 05:37:21;;;;;;;7.47;3.85;;;;;;;17.70;100.00;94637.47;5077457;28;20066;-80
2023/06/29 05:39:46;;;;;;;6.45;3.58;;;;;;;17.82;100.00;94645.63;5076386;28;20044;-80
2023/06/29 05:42:12;;;;;;;8.02;4.50;;;;;;;18.26;100.00;94645.00;5076503;28;20115;-80
2023/06/29 05:44:37;;;;;;;7.50;4.40;;;;;;;18.35;100.00;94640.47;5077628;28;20040;-80
2023/06/29 05:47:03;;;;;;;5.15;3.45;;;;;;;18.24;100.00;94647.97;5086741;28;20028;-80
2023/06/29 05:49:28;;;;;;;5.47;2.80;;;;;;;18.35;100.00;94646.59;5097556;28;20067;-80
2023/06/29 05:51:54;;;;;;;6.22;3.83;;;;;;;18.75;100.00;94656.28;5090776;28;20035;-80
2023/06/29 05:54:19;;;;;;;7.65;4.03;;;;;;;19.30;100.00;94653.31;5076225;28;20028;-81
2023/06/29 05:56:45;;;;;;;7.40;4.00;;;;;;;19.63;100.00;94653.53;5079164;28;20028;-80
2023/06/29 05:59:10;;;;;;;4.80;2.97;;;;;;;19.69;100.00;94653.38;5096393;28;20421;-80
2023/06/29 06:01:36;;;;;;;5.38;2.95;;;;;;;19.64;100.00;94652.44;5098023;28;20050;-81
2023/06/29 06:04:02;;;;;;;5.43;2.90;;;;;;;19.94;100.00;94657.03;5096289;28;20039;-81
2023/06/29 06:06:30;;;;;;;4.25;3.03;;;;;;;20.13;100.00;94656.66;5096137;28;20024;-81
2023/06/29 06:08:58;;;;;;;5.97;2.55;;;;;;;20.08;100.00;94662.13;5095567;28;20028;-82
2023/06/29 06:11:24;;;;;;;5.90;2.53;;;;;;;20.02;100.00;94658.91;5097309;28;20028;-81
2023/06/29 06:13:49;;;;;;;5.57;2.78;;;;;;;20.15;100.00;94670.41;5095901;28;20092;-82
2023/06/29 06:16:15;;;;;;;6.45;2.45;;;;;;;19.91;100.00;94670.97;5095742;28;20077;-81
2023/06/29 06:18:40;;;;;;;4.38;2.17;;;;;;;20.12;100.00;94678.25;5095754;28;20039;-81
2023/06/29 06:21:06;;;;;;;4.32;2.28;;;;;;;20.00;100.00;94668.28;5095894;28;20035;-81
2023/06/29 06:23:31;;;;;;;3.70;2.25;;;;;;;20.28;100.00;94678.47;5095892;28;20094;-81
2023/06/29 06:25:59;;;;;;;5.47;2.35;;;;;;;19.85;100.00;94678.31;5095724;28;20024;-80
2023/06/29 06:28:24;;;;;;;5.53;2.45;;;;;;;19.95;100.00;94679.13;5095317;28;20407;-81
2023/06/29 06:30:50;;;;;;;6.10;2.40;;;;;;;20.00;100.00;94681.59;5095384;28;20039;-81
2023/06/29 06:33:16;;;;;;;3.65;2.15;;;;;;;20.29;100.00;94678.13;5095772;28;20456;-80
2023/06/29 06:35:42;;;;;;;5.80;1.90;;;;;;;20.53;100.00;94681.31;5095748;28;20028;-80
2023/06/29 06:38:08;;;;;;;5.80;1.77;;;;;;;20.09;86.97;94681.53;5094982;28;20040;-80
2023/06/29 06:40:33;;;;;;;2.75;2.00;;;;;;;20.12;100.00;94684.34;5095417;28;20349;-81
2023/06/29 06:42:59;;;;;;;3.63;1.88;;;;;;;20.65;87.60;94683.28;5095252;28;20114;-80
2023/06/29 06:45:24;;;;;;;2.70;1.80;;;;;;;20.54;99.90;94682.88;5096434;28;20092;-81
2023/06/29 06:47:49;;;;;;;2.90;1.52;;;;;;;20.83;67.39;94684.72;5094637;28;20352;-81
2023/06/29 06:50:15;;;;;;;2.50;1.52;;;;;;;20.65;78.29;94676.03;5095047;28;20040;-80
2023/06/29 06:52:40;;;;;;;2.30;1.60;;;;;;;20.24;72.99;94678.34;5095477;28;20034;-82
2023/06/29 06:55:06;;;;;;;2.28;1.42;;;;;;;20.59;71.38;94680.81;5078261;28;20421;-82
2023/06/29 06:57:32;;;;;;;3.15;1.63;;;;;;;20.79;67.91;94680.34;5094404;28;20028;-83
2023/06/29 06:59:57;;;;;;;3.05;1.75;;;;;;;20.85;71.55;94681.75;5078260;28;20405;-83
2023/06/29 07:02:23;;;;;;;7.05;1.88;;;;;;;20.95;65.34;94684.03;5093878;28;20028;-82
2023/06/29 07:04:48;;;;;;;3.50;1.63;;;;;;;21.05;66.63;94682.84;5074630;28;20205;-81
2023/06/29 07:07:14;;;;;;;2.72;1.45;;;;;;;21.08;71.03;94674.19;5077931;28;20139;-81
2023/06/29 07:09:39;;;;;;;5.80;1.88;;;;;;;21.21;67.86;94685.66;5074797;28;20193;-83
2023/06/29 07:12:05;;;;;;;2.15;1.50;;;;;;;21.30;70.19;94683.72;5074515;28;20029;-82
2023/06/29 07:14:31;;;;;;;2.95;1.27;;;;;;;21.49;82.01;94681.66;5074760;28;20029;-81
2023/06/29 07:16:57;;;;;;;2.92;1.70;;;;;;;21.48;77.77;94683.53;5074908;28;20132;-81
2023/06/29 07:19:22;;;;;;;2.42;1.48;;;;;;;21.59;68.00;94681.22;5077141;28;20037;-81
2023/06/29 07:21:48;;;;;;;2.88;1.40;;;;;;;21.64;71.89;94672.25;5058288;28;20064;-81
2023/06/29 07:24:13;;;;;;;2.75;1.60;;;;;;;21.74;69.26;94680.66;5058265;28;20028;-81
2023/06/29 07:26:39;;;;;;;3.35;1.88;;;;;;;21.69;70.90;94677.41;5074658;28;20085;-82
2023/06/29 07:29:05;;;;;;;3.75;1.40;;;;;;;21.87;66.03;94672.63;5086152;28;20062;-81
2023/06/29 07:31:31;;;;;;;1.73;1.33;;;;;;;22.04;68.97;94677.00;5094951;28;20028;-82
2023/06/29 07:33:56;;;;;;;8.32;1.67;;;;;;;21.86;69.34;94674.53;5095195;28;20027;-81
2023/06/29 07:36:23;;;;;;;5.07;1.52;;;;;;;21.88;63.69;94677.66;5094967;28;20028;-82
2023/06/29 07:38:49;;;;;;;7.18;1.50;;;;;;;22.00;65.96;94687.53;5093833;28;20063;-82
2023/06/29 07:41:16;;;;;;;1.63;1.30;;;;;;;22.12;68.64;94684.13;5094320;28;20071;-83
2023/06/29 07:43:45;;;;;;;2.47;1.50;;;;;;;22.26;68.49;94681.09;5094091;28;20122;-82
2023/06/29 07:46:11;;;;;;;2.83;1.60;;;;;;;21.99;65.12;94685.22;5077521;28;20093;-83
2023/06/29 07:48:36;;;;;;;4.82;1.50;;;;;;;22.23;62.51;94679.09;5093725;28;20052;-83
2023/06/29 07:51:03;;;;;;;2.50;1.70;;;;;;;22.40;73.49;94675.44;5094017;28;20031;-83
2023/06/29 07:53:29;;;;;;;3.22;1.70;;;;;;;22.51;70.19;94669.66;5094411;28;20460;-83
2023/06/29 07:55:54;;;;;;;6.05;1.45;;;;;;;22.61;71.42;94673.78;5094227;28;20031;-83
2023/06/29 07:58:20;;;;;;;2.70;1.42;;;;;;;22.77;74.50;94674.63;5093649;28;20031;-81
2023/06/29 08:00:45;;;;;;;2.63;1.70;;;;;;;22.69;65.97;94668.31;5065679;28;20031;-83
2023/06/29 08:03:11;;;;;;;1.85;1.00;;;;;;;22.96;70.69;94666.00;5091752;28;20032;-82
2023/06/29 08:05:36;;;;;;;2.45;1.55;;;;;;;23.05;59.53;94665.84;5094330;28;20073;-83
2023/06/29 08:08:02;;;;;;;3.47;1.60;;;;;;;22.99;57.64;94668.00;5094166;28;20031;-83
2023/06/29 08:10:27;;;;;;;4.15;1.58;;;;;;;23.07;65.54;94671.63;5094102;28;20032;-82
2023/06/29 08:12:53;;;;;;;4.75;1.50;;;;;;;22.82;64.11;94676.28;5094272;28;20023;-83
2023/06/29 08:15:18;;;;;;;3.15;1.50;;;;;;;22.61;56.55;94671.09;5094570;28;20197;-83
2023/06/29 08:17:44;;;;;;;2.28;1.30;;;;;;;22.76;56.29;94672.28;5073337;28;20111;-82
2023/06/29 08:20:12;;;;;;;2.03;1.33;;;;;;;22.75;61.77;94674.19;5074305;28;20109;-82
2023/06/29 08:22:38;;;;;;;2.75;1.70;;;;;;;22.83;62.37;94677.84;5091003;28;20073;-82
2023/06/29 08:25:04;;;;;;;2.67;1.48;;;;;;;23.13;70.94;94669.50;5074239;28;20028;-82
2023/06/29 08:27:30;;;;;;;2.90;1.50;;;;;;;23.40;59.70;94667.94;5073652;28;20097;-83
2023/06/29 08:29:55;;;;;;;2.28;1.30;;;;;;;23.41;61.67;94664.16;5073867;28;20119;-83
2023/06/29 08:32:20;;;;;;;4.25;1.38;;;;;;;23.22;58.96;94669.34;5074004;28;20111;-82
2023/06/29 08:34:46;;;;;;;2.72;1.50;;;;;;;23.04;55.54;94666.19;5073690;28;20111;-82
2023/06/29 08:37:11;;;;;;;3.08;1.27;;;;;;;23.22;52.73;94661.34;5076821;28;20066;-83
2023/06/29 08:39:37;;;;;;;2.05;1.40;;;;;;;23.43;52.25;94666.50;5095288;28;20097;-82
2023/06/29 08:42:02;;;;;;;2.00;1.30;;;;;;;23.41;53.37;94664.16;5082327;28;20033;-82
2023/06/29 08:44:28;;;;;;;4.20;1.50;;;;;;;23.54;54.17;94661.41;5073037;28;20028;-83
2023/06/29 08:46:55;;;;;;;2.40;1.40;;;;;;;23.71;56.48;94666.44;5089438;28;20035;-83
2023/06/29 08:49:22;;;;;;;3.50;1.20;;;;;;;23.83;54.91;94664.81;5093780;28;20023;-83
2023/06/29 08:51:49;;;;;;;3.25;1.40;;;;;;;23.89;55.58;94663.44;5093871;28;20031;-82
2023/06/29 08:54:15;;;;;;;2.55;1.33;;;;;;;23.93;52.11;94666.19;5076995;28;20023;-81
2023/06/29 08:56:41;;;;;;;3.33;1.50;;;;;;;23.58;51.82;94657.72;5093690;28;20058;-82
2023/06/29 08:59:07;;;;;;;2.90;1.35;;;;;;;23.73;51.99;94663.41;5077066;28;20032;-84
2023/06/29 09:01:33;;;;;;;3.60;1.52;;;;;;;23.71;50.50;94669.09;5093754;28;20456;-82
2023/06/29 09:03:58;;;;;;;4.05;1.50;;;;;;;24.16;51.45;94670.94;5093998;28;20020;-83
2023/06/29 09:06:24;;;;;;;2.45;1.45;;;;;;;24.32;50.57;94666.34;5094029;28;20077;-82
2023/06/29 09:08:49;;;;;;;2.22;1.35;;;;;;;24.00;48.25;94666.34;5086781;28;20079;-83
2023/06/29 09:11:15;;;;;;;3.28;1.40;;;;;;;23.89;52.64;94668.00;5078999;28;20028;-84
2023/06/29 09:13:40;;;;;;;1.88;1.20;;;;;;;23.87;52.53;94660.31;5093633;28;20054;-83
2023/06/29 09:16:06;;;;;;;1.98;1.17;;;;;;;23.93;52.39;94656.25;5093809;28;20160;-85
2023/06/29 09:18:32;;;;;;;2.55;1.35;;;;;;;23.98;53.86;94657.91;5092975;28;20020;-84
2023/06/29 09:20:57;;;;;;;3.00;1.40;;;;;;;23.86;52.42;94659.53;5097525;28;20028;-83
2023/06/29 09:23:25;;;;;;;2.17;1.40;;;;;;;23.98;52.44;94657.91;5079564;28;20032;-84
2023/06/29 09:25:53;;;;;;;4.00;1.55;;;;;;;24.02;55.79;94656.09;5097498;28;20768;-84
2023/06/29 09:28:19;;;;;;;1.92;1.15;;;;;;;24.14;56.56;94661.38;5097178;28;20035;-84
2023/06/29 09:30:44;;;;;;;3.78;1.60;;;;;;;24.04;56.90;94661.13;5080576;28;20023;-85
2023/06/29 09:33:11;;;;;;;4.32;1.77;;;;;;;23.91;54.81;94657.72;5097440;28;20020;-84
2023/06/29 09:35:43;;;;;;;5.72;1.70;;;;;;;24.19;55.43;94656.88;5097321;28;20016;-84
2023/06/29 09:38:09;;;;;;;6.60;1.37;;;;;;;24.37;55.53;94646.56;5096726;28;20441;-85
2023/06/29 09:40:50;;;;;;;2.65;1.67;;;;;;;24.39;55.01;94653.13;5079950;28;20081;-84
2023/06/29 09:43:20;;;;;;;3.80;1.33;;;;;;;24.42;56.17;94654.31;5097288;28;20032;-84
2023/06/29 09:45:46;;;;;;;2.28;1.25;;;;;;;24.51;54.93;94659.47;5096907;28;20441;-83
2023/06/29 09:48:12;;;;;;;2.92;1.75;;;;;;;24.55;50.99;94649.63;5096512;28;20099;-82
2023/06/29 09:50:40;;;;;;;2.28;1.27;;;;;;;24.52;51.87;94653.00;5096946;28;20038;-83
2023/06/29 09:53:09;;;;;;;2.88;1.30;;;;;;;24.43;51.54;94637.91;5098084;28;20028;-84
2023/06/29 09:55:36;;;;;;;4.45;1.77;;;;;;;24.46;54.44;94643.69;5097042;28;20102;-85
2023/06/29 09:58:02;;;;;;;3.42;1.60;;;;;;;24.61;60.82;94645.53;5096394;28;20445;-84
2023/06/29 10:00:32;;;;;;;2.10;1.40;;;;;;;24.79;55.75;94640.59;5096726;28;20035;-83
2023/06/29 10:02:57;;;;;;;4.35;1.42;;;;;;;24.80;56.09;94649.38;5098011;28;20081;-84
2023/06/29 10:05:23;;;;;;;2.38;1.33;;;;;;;24.86;54.21;94648.00;5096559;28;20023;-83
2023/06/29 10:07:50;;;;;;;2.88;1.55;;;;;;;24.84;52.23;94644.91;5097364;28;20046;-84
2023/06/29 10:10:18;;;;;;;3.45;1.55;;;;;;;24.93;52.10;94650.81;5096729;28;20070;-85
2023/06/29 10:12:49;;;;;;;2.75;1.67;;;;;;;24.77;50.97;94642.06;5096838;28;20032;-83
2023/06/29 10:15:16;;;;;;;2.35;1.40;;;;;;;24.62;52.28;94647.09;5096405;28;20028;-84
2023/06/29 10:18:07;;;;;;;3.83;1.63;;;;;;;24.60;56.06;94640.53;5096259;28;20031;-83
2023/06/29 10:20:33;;;;;;;4.88;1.50;;;;;;;24.72;53.37;94643.09;5096443;28;20023;-85
2023/06/29 10:23:01;;;;;;;3.00;1.30;;;;;;;24.79;54.15;94635.22;5079778;28;20036;-84
2023/06/29 10:25:28;;;;;;;5.53;2.38;;;;;;;24.79;58.88;94637.13;5096763;28;20050;-83
2023/06/29 10:27:55;;;;;;;2.95;1.45;;;;;;;25.09;62.23;94636.56;5096091;28;20498;-84
2023/06/29 10:30:21;;;;;;;2.10;1.50;;;;;;;25.20;60.83;94626.81;5095576;28;20460;-83
2023/06/29 10:32:50;;;;;;;3.70;1.50;;;;;;;25.22;63.24;94629.91;5096441;28;20028;-85
2023/06/29 10:35:16;;;;;;;3.45;1.85;;;;;;;25.14;57.79;94636.28;5097405;28;20032;-84
2023/06/29 10:37:49;;;;;;;3.60;1.58;;;;;;;25.08;57.18;94635.00;5095862;28;20460;-84
2023/06/29 10:40:16;;;;;;;3.05;1.80;;;;;;;25.38;59.15;94640.53;5096253;28;20027;-85
2023/06/29 10:42:42;;;;;;;3.70;1.65;;;;;;;25.31;56.27;94636.97;5096014;28;20036;-84
2023/06/29 10:45:20;;;;;;;3.28;1.70;;;;;;;25.50;55.99;94628.91;5097255;28;20122;-83
2023/06/29 10:48:10;;;;;;;1.88;1.20;;;;;;;25.63;59.60;94629.50;5088134;28;20032;-83
2023/06/29 10:50:38;;;;;;;2.10;1.45;;;;;;;25.42;52.36;94624.53;5092209;28;20567;-84
2023/06/29 10:53:05;;;;;;;6.25;1.83;;;;;;;25.52;56.17;94629.31;5078485;28;20025;-86
2023/06/29 10:55:41;;;;;;;2.88;1.50;;;;;;;25.53;55.33;94625.50;5077569;28;20060;-86
2023/06/29 10:58:23;;;;;;;2.75;1.38;;;;;;;25.47;54.57;94621.53;5071933;28;20081;-84
2023/06/29 11:00:51;;;;;;;3.00;1.77;;;;;;;25.54;51.61;94621.72;5075452;28;20024;-85
2023/06/29 11:03:18;;;;;;;4.05;1.83;;;;;;;25.49;52.47;94621.22;5075429;28;20107;-84
2023/06/29 11:05:47;;;;;;;2.67;1.73;;;;;;;25.53;51.21;94617.44;5059049;28;20032;-85
2023/06/29 11:08:12;;;;;;;4.63;1.90;;;;;;;25.72;52.45;94602.44;5074839;28;20425;-84
2023/06/29 11:10:38;;;;;;;3.38;1.67;;;;;;;26.01;52.63;94607.47;5070010;28;20024;-83
2023/06/29 11:13:08;;;;;;;3.22;1.55;;;;;;;26.13;53.90;94598.44;5095767;28;20485;-85
2023/06/29 11:15:37;;;;;;;3.60;1.80;;;;;;;26.21;49.11;94603.59;5078718;28;20027;-83
2023/06/29 11:18:04;;;;;;;2.25;1.50;;;;;;;26.22;52.98;94596.28;5078251;28;20074;-83
2023/06/29 11:20:30;;;;;;;2.22;1.73;;;;;;;26.04;55.01;94601.38;5095392;28;20050;-84
2023/06/29 11:22:57;;;;;;;2.20;1.45;;;;;;;26.01;52.72;94596.72;5095194;28;20028;-83